You are not logged in, Click here to log in
ICAO: KLAX Country: 美國加州大洛杉磯地區
Latitude: 33.9416 Longitude: -118.409
Total Arrivals: 38 Total Departures: 29
Latest Arrival: VX1946 (KSFO-KLAX)Jason. Li Latest Departure: A9A80W (KLAX-SPJC)Jason. Li
Scenery:
METAR : KLAX 261953Z 25010KT 8SM FEW017 SCT023 BKN030 20/14 A2999 RMK AO2 SLP153 T02000144 $

洛杉磯國際機場LAX